This is the latest recevied weather packets stored in our database for station/object DH3PAE-6. If no packets are shown the sender has not sent any weather packets the latest 10 day(s).
| Time | Temp. | Humidity | Pressure | Rain* | Wind** | Luminosity | Snow |
|---|---|---|---|---|---|---|---|
| 1777261156 | -1.11° C | 92% | 1022 hPa | 0 mm | - | 0 W/m² | - |
| 1777258756 | -0.56° C | 91% | 1022 hPa | 0 mm | - | 0 W/m² | - |
| 1777258176 | -0.56° C | 91% | 1022.1 hPa | 0 mm | - | 0 W/m² | - |
| 1777256356 | -0.56° C | 90% | 1022.1 hPa | 0 mm | - | 0 W/m² | - |
| 1777254556 | 0° C | 89% | 1022.1 hPa | 0 mm | - | 0 W/m² | - |
| 1777249796 | 1.11° C | 86% | 1022.6 hPa | 0 mm | - | 0 W/m² | - |
| 1777245559 | 1.67° C | 84% | 1022.8 hPa | 0 mm | - | 0 W/m² | - |
| 1777241956 | 2.78° C | 80% | 1022.6 hPa | 0 mm | - | 0 W/m² | - |
| 1777240161 | 3.33° C | 79% | 1022.6 hPa | 0 mm | - | 0 W/m² | - |
| 1777238961 | 3.89° C | 78% | 1022.6 hPa | 0 mm | - | 0 W/m² | - |
| 1777237758 | 4.44° C | 75% | 1022.8 hPa | 0 mm | - | 0 W/m² | - |
| 1777234758 | 6.11° C | 70% | 1022.8 hPa | 0 mm | - | 0 W/m² | - |
| 1777232957 | 6.67° C | 67% | 1022.7 hPa | 0 mm | - | 0 W/m² | - |
| 1777227017 | 12.22° C | 46% | 1022 hPa | 0 mm | - | 19 W/m² | - |
| 1777223437 | 14.44° C | 46% | 1021.8 hPa | 0 mm | - | 179 W/m² | - |
| 1777222837 | 14.44° C | 44% | 1021.8 hPa | 0 mm | - | 223 W/m² | - |
| 1777220417 | 15.56° C | 42% | 1022 hPa | 0 mm | - | 338 W/m² | - |
| 1777218617 | 15.56° C | 37% | 1022 hPa | 0 mm | - | 422 W/m² | - |
| 1777215017 | 16.11° C | 34% | 1022.3 hPa | 0 mm | - | 587 W/m² | - |
| 1777214417 | 16.67° C | 29% | 1022.4 hPa | 0 mm | - | 613 W/m² | - |
| 1777213217 | 16.67° C | 36% | 1022.6 hPa | 0 mm | - | 656 W/m² | - |
| 1777207817 | 16.11° C | 44% | 1022.9 hPa | 0 mm | - | 795 W/m² | - |
| 1777205417 | 16.67° C | 44% | 1023 hPa | 0 mm | - | 813 W/m² | - |
| 1777204817 | 16.11° C | 50% | 1022.8 hPa | 0 mm | - | 835 W/m² | - |
| 1777201817 | 15° C | 40% | 1023.1 hPa | 0 mm | - | 842 W/m² | - |
* Rain latest hour (hover to see other rain measurements)
** Current wind speed in m/s (hover to see current wind gust speed)